Main page
METAR-TAF:

METAR-TAF

Airports :

Leeds Bradford Airport

Leeds, England

latitude: 53-52N, longitude: 001-39W, elevation: 208 m

Current weather observation

The report was made 38 minutes ago, at 10:20 UTC
Wind 8 kt from the South/Southwest, varying between South and West/Southwest
Temperature 12°C
Humidity 67%
Pressure 994 hPa
Visibility 10 km or more
Scattered clouds at a height of 2800 ft

METAR: EGNM 091020Z 21008KT 180V240 9999 SCT028 12/06 Q0994

Time: 11:58 (10:58 UTC)

Forecast

The report was made 3 hours and 33 minutes ago, at 07:25 UTC
Forecast valid from 09 at 07 UTC to 10 at 06 UTC
Wind 8 kt from the South/Southwest
Visibility 10 km or more
Scattered clouds at a height of 3000 ft
Probability 30% :
Temporary
from 09 at 07 UTC to 09 at 09 UTC
Broken clouds at a height of 1200 ft
Probability 30% :
Temporary
from 09 at 14 UTC to 09 at 18 UTC
Visibility: 8000 m
light rain showers

TAF: EGNM 090725Z 0907/1006 20008KT 9999 SCT030 PROB30 TEMPO 0907/0909 BKN012 PROB30 TEMPO 0914/0918 8000 -SHRA

Weather observations and forecasts of more than 4000 airports (METAR and TAF reports).

The available stations are represented by yellow and red dots on the map.

Hover mouse over dot to see the name of the station.

Then click to see weather observations and forecasts.

To change the map : click on the green buttons with a black cross to zoom in, on the green button with a dash to zoom out, or on the green arrows for adjacent maps.


METAR-TAF: